createdAt,value
2017-08-02T00:01:39.432Z,15.00
2017-08-02T00:04:07.907Z,13.03
2017-08-02T00:06:36.335Z,15.60
2017-08-02T00:09:03.968Z,13.80
2017-08-02T00:11:32.441Z,19.80
2017-08-02T00:14:00.936Z,23.20
2017-08-02T00:16:29.424Z,23.53
2017-08-02T00:18:57.869Z,23.70
2017-08-02T00:21:26.316Z,22.20
2017-08-02T00:23:55.572Z,20.40
2017-08-02T00:26:24.782Z,25.83
2017-08-02T00:28:53.218Z,24.60
2017-08-02T00:31:21.706Z,21.63
2017-08-02T00:33:50.920Z,24.37
2017-08-02T00:36:19.825Z,27.10
2017-08-02T00:38:48.264Z,19.70
2017-08-02T00:41:16.695Z,14.37
2017-08-02T00:43:45.193Z,15.87
2017-08-02T00:46:13.629Z,15.27
2017-08-02T00:48:42.088Z,16.97
2017-08-02T00:51:10.998Z,13.23
2017-08-02T00:53:39.818Z,13.93
2017-08-02T00:56:08.262Z,13.83
2017-08-02T00:58:36.739Z,17.03
2017-08-02T01:01:05.243Z,12.57
2017-08-02T01:03:33.700Z,12.73
2017-08-02T01:06:02.556Z,12.60
2017-08-02T01:08:31.436Z,13.80
2017-08-02T01:11:00.332Z,11.87
2017-08-02T01:13:29.197Z,16.60
2017-08-02T01:15:58.410Z,13.60
2017-08-02T01:18:27.296Z,14.57
2017-08-02T01:20:56.169Z,12.37
2017-08-02T01:23:24.647Z,11.80
2017-08-02T01:25:54.212Z,15.53
2017-08-02T01:28:23.502Z,11.63
2017-08-02T01:30:52.694Z,11.70
2017-08-02T01:33:21.128Z,10.97
2017-08-02T01:35:49.633Z,12.07
2017-08-02T01:38:19.201Z,17.80
2017-08-02T01:40:47.645Z,12.57
2017-08-02T01:43:16.489Z,12.13
2017-08-02T01:45:45.332Z,13.37
2017-08-02T01:48:14.248Z,14.97
2017-08-02T01:50:42.697Z,19.00
2017-08-02T01:53:11.948Z,17.17
2017-08-02T01:55:40.441Z,19.57
2017-08-02T01:58:08.891Z,17.90
2017-08-02T02:00:37.755Z,24.17
2017-08-02T02:03:06.229Z,22.37
2017-08-02T02:05:34.672Z,19.63
2017-08-02T02:08:03.180Z,22.27
2017-08-02T02:10:31.642Z,20.13
2017-08-02T02:13:00.871Z,17.33
2017-08-02T02:15:29.353Z,20.23
2017-08-02T02:17:57.790Z,21.33
2017-08-02T02:20:27.035Z,22.13
2017-08-02T02:22:56.989Z,25.10
2017-08-02T02:25:25.427Z,19.33
2017-08-02T02:27:54.293Z,14.10
2017-08-02T02:30:23.499Z,14.43
2017-08-02T02:32:52.744Z,13.30
2017-08-02T02:35:21.935Z,14.90
2017-08-02T02:37:50.812Z,12.20
2017-08-02T02:40:19.345Z,13.70
2017-08-02T02:42:49.164Z,13.60
2017-08-02T02:45:17.709Z,16.70
2017-08-02T02:47:46.149Z,14.90
2017-08-02T02:50:15.733Z,16.37
2017-08-02T02:52:44.172Z,13.80
2017-08-02T02:55:12.807Z,13.70
2017-08-02T02:57:41.300Z,15.60
2017-08-02T03:00:10.131Z,10.87
2017-08-02T03:02:40.033Z,9.50
2017-08-02T03:05:08.873Z,10.27
2017-08-02T03:07:38.089Z,10.80
2017-08-02T03:10:07.616Z,11.77
2017-08-02T03:12:36.258Z,13.13
2017-08-02T03:15:05.733Z,14.80
2017-08-02T03:17:34.864Z,13.00
2017-08-02T03:20:03.299Z,13.90
2017-08-02T03:22:32.545Z,11.47
2017-08-02T03:25:01.422Z,11.50
2017-08-02T03:27:30.303Z,10.00
2017-08-02T03:29:58.738Z,10.90
2017-08-02T03:32:27.158Z,9.80
2017-08-02T03:34:56.234Z,13.70
2017-08-02T03:37:24.663Z,10.00
2017-08-02T03:39:53.862Z,9.93
2017-08-02T03:42:22.711Z,11.73
2017-08-02T03:44:51.140Z,13.43
2017-08-02T03:47:20.061Z,15.73
2017-08-02T03:49:48.557Z,15.50
2017-08-02T03:52:16.994Z,21.30
2017-08-02T03:54:46.216Z,26.10
2017-08-02T03:57:15.100Z,19.37
2017-08-02T03:59:43.938Z,28.27
2017-08-02T04:02:12.411Z,25.30
2017-08-02T04:04:40.909Z,18.23
2017-08-02T04:07:10.118Z,18.23
2017-08-02T04:09:38.566Z,18.37
2017-08-02T04:12:07.788Z,17.10
2017-08-02T04:14:37.872Z,15.77
2017-08-02T04:17:06.309Z,16.30
2017-08-02T04:19:34.742Z,16.00
2017-08-02T04:22:03.211Z,15.87
2017-08-02T04:24:31.678Z,18.17
2017-08-02T04:27:00.136Z,13.03
2017-08-02T04:29:28.642Z,13.37
2017-08-02T04:31:57.127Z,14.83
2017-08-02T04:34:25.584Z,15.63
2017-08-02T04:36:54.023Z,13.20
2017-08-02T04:39:22.470Z,16.00
2017-08-02T04:41:50.920Z,13.80
2017-08-02T04:44:19.788Z,13.90
2017-08-02T04:46:49.001Z,18.43
2017-08-02T04:49:17.490Z,16.00
2017-08-02T04:51:45.914Z,20.17
2017-08-02T04:54:15.123Z,16.23
2017-08-02T04:56:43.620Z,13.60
2017-08-02T04:59:12.112Z,13.97
2017-08-02T05:01:40.565Z,12.30
2017-08-02T05:04:09.432Z,13.40
2017-08-02T05:06:37.873Z,15.20
2017-08-02T05:09:06.415Z,10.80
2017-08-02T05:11:34.851Z,12.20
2017-08-02T05:14:03.279Z,10.40
2017-08-02T05:16:31.750Z,8.40
2017-08-02T05:19:00.212Z,11.90
2017-08-02T05:21:29.187Z,9.43
2017-08-02T05:23:58.432Z,10.90
2017-08-02T05:26:27.320Z,10.47
2017-08-02T05:28:55.756Z,10.30
2017-08-02T05:31:24.283Z,11.37
2017-08-02T05:33:53.481Z,12.30
2017-08-02T05:36:21.904Z,13.33
2017-08-02T05:38:50.408Z,15.53
2017-08-02T05:41:20.344Z,15.80
2017-08-02T05:43:50.357Z,14.57
2017-08-02T05:46:18.841Z,13.40
2017-08-02T05:48:47.706Z,12.20
2017-08-02T05:51:16.570Z,12.17
2017-08-02T05:53:45.760Z,12.20
2017-08-02T05:56:14.237Z,11.30
2017-08-02T05:58:43.488Z,8.70
2017-08-02T06:01:11.912Z,8.10
2017-08-02T06:03:40.731Z,8.50
2017-08-02T06:06:09.185Z,7.40
2017-08-02T06:08:37.662Z,8.83
2017-08-02T06:11:06.078Z,7.60
2017-08-02T06:13:34.507Z,8.00
2017-08-02T06:16:02.985Z,8.03
2017-08-02T06:18:32.016Z,8.67
2017-08-02T06:21:00.282Z,6.70
2017-08-02T06:23:28.606Z,8.33
2017-08-02T06:25:57.422Z,6.57
2017-08-02T06:28:25.682Z,7.70
2017-08-02T06:30:54.561Z,6.10
2017-08-02T06:33:23.381Z,5.60
2017-08-02T06:35:51.883Z,5.87
2017-08-02T06:38:21.641Z,5.33
2017-08-02T06:40:50.846Z,6.70
2017-08-02T06:43:19.712Z,5.40
2017-08-02T06:45:48.141Z,5.07
2017-08-02T06:48:16.674Z,6.77
2017-08-02T06:50:45.103Z,6.47
2017-08-02T06:53:14.680Z,5.50
2017-08-02T06:55:43.164Z,4.50
2017-08-02T06:58:11.600Z,5.50
2017-08-02T07:00:40.451Z,4.23
2017-08-02T07:03:08.919Z,6.60
2017-08-02T07:05:37.344Z,5.17
2017-08-02T07:08:06.609Z,5.27
2017-08-02T07:10:35.039Z,5.10
2017-08-02T07:13:04.679Z,4.93
2017-08-02T07:15:33.131Z,3.80
2017-08-02T07:18:01.614Z,4.60
2017-08-02T07:20:30.359Z,4.47
2017-08-02T07:22:59.557Z,6.40
2017-08-02T07:25:27.994Z,5.27
2017-08-02T07:27:56.429Z,5.20
2017-08-02T07:30:26.044Z,4.63
2017-08-02T07:32:55.242Z,5.00
2017-08-02T07:35:24.081Z,5.30
2017-08-02T07:37:52.537Z,4.90
2017-08-02T07:40:20.991Z,4.00
2017-08-02T07:42:50.601Z,5.63
2017-08-02T07:45:19.028Z,4.70
2017-08-02T07:47:47.508Z,3.30
2017-08-02T07:50:15.946Z,5.30
2017-08-02T07:52:44.384Z,4.27
2017-08-02T07:55:13.241Z,4.77
2017-08-02T07:57:41.661Z,4.87
2017-08-02T08:00:11.665Z,4.97
2017-08-02T08:02:40.876Z,4.50
2017-08-02T08:05:09.313Z,4.20
2017-08-02T08:07:37.811Z,4.43
2017-08-02T08:10:06.240Z,5.13
2017-08-02T08:12:34.669Z,4.40
2017-08-02T08:15:03.136Z,4.90
2017-08-02T08:17:31.630Z,6.23
2017-08-02T08:20:00.070Z,4.20
2017-08-02T08:22:28.535Z,4.43
2017-08-02T08:24:56.993Z,6.13
2017-08-02T08:27:25.890Z,5.10
2017-08-02T08:29:54.325Z,5.87
2017-08-02T08:32:23.563Z,3.60
2017-08-02T08:34:52.032Z,7.33
2017-08-02T08:37:20.860Z,4.77
2017-08-02T08:39:49.300Z,4.40
2017-08-02T08:42:18.204Z,4.67
2017-08-02T08:44:48.142Z,7.63
2017-08-02T08:47:16.400Z,5.63
2017-08-02T08:49:45.625Z,4.03
2017-08-02T08:52:14.061Z,4.80
2017-08-02T08:54:42.493Z,6.37
2017-08-02T08:57:10.984Z,3.73
2017-08-02T08:59:39.824Z,4.90
2017-08-02T09:02:09.060Z,4.77
2017-08-02T09:04:38.632Z,6.10
2017-08-02T09:07:08.136Z,4.70
2017-08-02T09:09:36.604Z,5.43
2017-08-02T09:12:05.430Z,4.93
2017-08-02T09:14:33.899Z,5.13
2017-08-02T09:17:02.369Z,5.37
2017-08-02T09:19:30.840Z,4.70
2017-08-02T09:21:59.677Z,4.77
2017-08-02T09:24:28.871Z,6.07
2017-08-02T09:26:58.150Z,5.70
2017-08-02T09:29:26.584Z,5.50
2017-08-02T09:31:55.419Z,4.93
2017-08-02T09:34:23.951Z,5.37
2017-08-02T09:36:52.138Z,4.90
2017-08-02T09:39:20.970Z,3.10
2017-08-02T09:41:51.062Z,5.33
2017-08-02T09:44:19.517Z,5.00
2017-08-02T09:46:48.013Z,7.03
2017-08-02T09:49:16.471Z,4.47
2017-08-02T09:51:44.902Z,4.90
2017-08-02T09:54:13.377Z,4.20
2017-08-02T09:56:41.814Z,5.77
2017-08-02T09:59:10.322Z,5.83
2017-08-02T10:01:38.744Z,4.20
2017-08-02T10:04:07.208Z,4.70
2017-08-02T10:06:35.698Z,4.70
2017-08-02T10:09:03.813Z,4.60
2017-08-02T10:11:33.764Z,4.93
2017-08-02T10:14:02.250Z,4.70
2017-08-02T10:16:30.697Z,3.40
2017-08-02T10:18:59.137Z,4.07
2017-08-02T10:21:27.633Z,3.63
2017-08-02T10:23:56.076Z,4.20
2017-08-02T10:26:24.513Z,4.17
2017-08-02T10:28:53.760Z,3.37
2017-08-02T10:31:23.458Z,3.37
2017-08-02T10:33:51.887Z,3.57
2017-08-02T10:36:21.151Z,3.13
2017-08-02T10:38:49.593Z,5.30
2017-08-02T10:41:18.012Z,3.97
2017-08-02T10:43:46.471Z,4.30
2017-08-02T10:46:14.898Z,4.07
2017-08-02T10:48:43.375Z,5.40
2017-08-02T10:51:12.953Z,3.50
2017-08-02T10:53:41.391Z,5.00
2017-08-02T10:56:09.882Z,4.00
2017-08-02T10:58:38.340Z,4.97
2017-08-02T11:01:06.835Z,4.00
2017-08-02T11:03:36.993Z,4.30
2017-08-02T11:06:05.422Z,4.07
2017-08-02T11:08:34.883Z,4.13
2017-08-02T11:11:03.598Z,4.20
2017-08-02T11:13:32.056Z,4.37
2017-08-02T11:16:00.466Z,3.80
2017-08-02T11:18:29.707Z,4.43
2017-08-02T11:20:58.204Z,4.50
2017-08-02T11:23:26.635Z,4.20
2017-08-02T11:25:55.128Z,3.93
2017-08-02T11:28:23.584Z,4.37
2017-08-02T11:30:52.781Z,4.67
2017-08-02T11:33:21.251Z,4.73
2017-08-02T11:35:49.389Z,3.90
2017-08-02T11:38:17.834Z,4.70
2017-08-02T11:40:46.300Z,4.43
2017-08-02T11:43:14.768Z,5.13
2017-08-02T11:45:43.252Z,4.60
2017-08-02T11:48:11.700Z,4.70
2017-08-02T11:50:40.179Z,4.60
2017-08-02T11:53:08.667Z,4.23
2017-08-02T11:55:37.106Z,4.90
2017-08-02T11:58:05.541Z,5.23
2017-08-02T12:00:34.787Z,6.63
2017-08-02T12:03:03.853Z,5.97
2017-08-02T12:05:32.749Z,5.27
2017-08-02T12:08:01.193Z,5.30
2017-08-02T12:10:30.394Z,5.40
2017-08-02T12:12:58.881Z,4.70
2017-08-02T12:15:28.110Z,5.70
2017-08-02T12:17:56.942Z,5.50
2017-08-02T12:20:26.179Z,5.43
2017-08-02T12:22:55.082Z,5.90
2017-08-02T12:25:23.517Z,5.83
2017-08-02T12:27:53.017Z,4.80
2017-08-02T12:30:22.996Z,5.10
2017-08-02T12:32:51.873Z,5.63
2017-08-02T12:35:20.695Z,5.77
2017-08-02T12:37:49.203Z,4.47
2017-08-02T12:40:19.269Z,5.10
2017-08-02T12:42:48.511Z,7.00
2017-08-02T12:45:17.634Z,5.60
2017-08-02T12:47:47.470Z,5.27
2017-08-02T12:50:17.004Z,5.23
2017-08-02T12:52:45.448Z,5.80
2017-08-02T12:55:14.323Z,5.07
2017-08-02T12:57:42.948Z,4.90
2017-08-02T13:00:12.149Z,6.40
2017-08-02T13:02:41.055Z,5.67
2017-08-02T13:05:09.512Z,5.13
2017-08-02T13:07:38.348Z,5.83
2017-08-02T13:10:07.622Z,6.03
2017-08-02T13:12:36.052Z,5.77
2017-08-02T13:15:04.546Z,5.63
2017-08-02T13:17:33.752Z,6.37
2017-08-02T13:20:02.244Z,4.77
2017-08-02T13:22:31.085Z,5.20
2017-08-02T13:24:59.909Z,5.27
2017-08-02T13:27:28.423Z,5.33
2017-08-02T13:29:57.249Z,5.40
2017-08-02T13:32:25.676Z,6.10
2017-08-02T13:34:54.610Z,7.77
2017-08-02T13:37:23.055Z,5.40
2017-08-02T13:39:51.878Z,5.37
2017-08-02T13:42:20.783Z,6.67
2017-08-02T13:44:49.215Z,9.90
2017-08-02T13:47:17.701Z,5.80
2017-08-02T13:49:46.529Z,5.87
2017-08-02T13:52:15.745Z,6.13
2017-08-02T13:54:44.611Z,8.60
2017-08-02T13:57:13.051Z,6.07
2017-08-02T13:59:41.905Z,5.70
2017-08-02T14:02:11.504Z,5.90
2017-08-02T14:04:40.403Z,7.97
2017-08-02T14:07:09.296Z,6.60
2017-08-02T14:09:37.730Z,5.97
2017-08-02T14:12:06.169Z,6.00
2017-08-02T14:14:34.672Z,6.70
2017-08-02T14:17:03.108Z,7.20
2017-08-02T14:19:32.588Z,5.70
2017-08-02T14:22:01.448Z,6.17
2017-08-02T14:24:30.285Z,6.57
2017-08-02T14:26:58.765Z,6.30
2017-08-02T14:29:27.608Z,7.47
2017-08-02T14:31:56.803Z,7.80
2017-08-02T14:34:26.390Z,5.37
2017-08-02T14:36:54.866Z,6.93
2017-08-02T14:39:23.709Z,6.60
2017-08-02T14:41:52.204Z,7.70
2017-08-02T14:44:21.045Z,6.60
2017-08-02T14:46:49.524Z,6.73
2017-08-02T14:49:21.345Z,6.20
2017-08-02T14:51:49.882Z,5.87
2017-08-02T14:54:18.302Z,6.77
2017-08-02T14:56:47.136Z,6.80
2017-08-02T14:59:16.003Z,6.90
2017-08-02T15:01:44.479Z,5.80
2017-08-02T15:04:12.958Z,6.80
2017-08-02T15:06:42.244Z,7.37
2017-08-02T15:09:10.681Z,9.20
2017-08-02T15:11:39.588Z,6.50
2017-08-02T15:14:08.028Z,8.20
2017-08-02T15:16:36.465Z,7.17
2017-08-02T15:19:05.380Z,6.57
2017-08-02T15:21:33.856Z,6.10
2017-08-02T15:24:03.286Z,7.20
2017-08-02T15:26:32.190Z,6.33
2017-08-02T15:29:00.623Z,6.17
2017-08-02T15:31:29.055Z,8.13
2017-08-02T15:33:57.968Z,6.47
2017-08-02T15:36:26.430Z,7.67
2017-08-02T15:38:54.865Z,8.07
2017-08-02T15:41:23.405Z,8.10
2017-08-02T15:43:52.609Z,8.00
2017-08-02T15:46:22.576Z,7.07
2017-08-02T15:48:51.036Z,7.87
2017-08-02T15:51:20.122Z,7.23
2017-08-02T15:53:48.559Z,7.13
2017-08-02T15:56:18.236Z,7.47
2017-08-02T15:58:47.101Z,7.20
2017-08-02T16:01:15.539Z,7.87
2017-08-02T16:03:44.475Z,6.90
2017-08-02T16:06:12.923Z,8.30
2017-08-02T16:08:41.738Z,8.60
2017-08-02T16:11:10.226Z,8.40
2017-08-02T16:13:38.661Z,7.47
2017-08-02T16:16:07.564Z,6.87
2017-08-02T16:18:36.457Z,7.63
2017-08-02T16:21:04.887Z,8.13
2017-08-02T16:23:33.325Z,8.10
2017-08-02T16:26:02.182Z,8.20
2017-08-02T16:28:30.615Z,8.50
2017-08-02T16:30:59.499Z,9.77
2017-08-02T16:33:27.932Z,6.63
2017-08-02T16:35:56.421Z,7.23
2017-08-02T16:38:24.896Z,8.10
2017-08-02T16:40:53.377Z,7.43
2017-08-02T16:43:21.873Z,7.17
2017-08-02T16:45:50.747Z,7.53
2017-08-02T16:48:19.573Z,7.40
2017-08-02T16:50:48.038Z,7.53
2017-08-02T16:53:17.227Z,8.33
2017-08-02T16:55:46.082Z,8.13
2017-08-02T16:58:14.953Z,8.47
2017-08-02T17:00:43.835Z,8.17
2017-08-02T17:03:12.277Z,8.07
2017-08-02T17:05:41.533Z,7.60
2017-08-02T17:08:10.739Z,8.73
2017-08-02T17:10:39.584Z,8.27
2017-08-02T17:13:08.516Z,7.60
2017-08-02T17:15:37.344Z,8.83
2017-08-02T17:18:06.813Z,7.20
2017-08-02T17:20:35.250Z,8.43
2017-08-02T17:23:04.083Z,8.07
2017-08-02T17:25:32.566Z,8.50
2017-08-02T17:28:01.810Z,7.80
2017-08-02T17:30:30.295Z,8.43
2017-08-02T17:32:59.127Z,8.57
2017-08-02T17:35:27.555Z,8.20
2017-08-02T17:37:56.819Z,8.37
2017-08-02T17:40:26.018Z,10.90
2017-08-02T17:42:54.853Z,8.20
2017-08-02T17:45:23.745Z,9.80
2017-08-02T17:47:52.188Z,7.73
2017-08-02T17:50:21.012Z,9.70
2017-08-02T17:52:49.862Z,10.00
2017-08-02T17:55:18.279Z,9.03
2017-08-02T17:57:47.155Z,7.80
2017-08-02T18:00:16.364Z,9.13
2017-08-02T18:02:45.674Z,8.57
2017-08-02T18:05:14.528Z,8.97
2017-08-02T18:07:43.358Z,9.17
2017-08-02T18:10:11.827Z,8.67
2017-08-02T18:12:40.255Z,9.17
2017-08-02T18:15:09.854Z,9.37
2017-08-02T18:17:38.330Z,8.70
2017-08-02T18:20:07.551Z,8.80
2017-08-02T18:22:36.036Z,10.00
2017-08-02T18:25:04.497Z,8.90
2017-08-02T18:27:32.930Z,9.23
2017-08-02T18:30:02.168Z,9.10
2017-08-02T18:32:30.647Z,9.00
2017-08-02T18:34:59.471Z,10.17
2017-08-02T18:37:27.976Z,9.80
2017-08-02T18:39:57.221Z,9.60
2017-08-02T18:42:26.053Z,10.70
2017-08-02T18:44:54.511Z,13.17
2017-08-02T18:47:23.704Z,11.57
2017-08-02T18:49:52.172Z,10.20
2017-08-02T18:52:20.646Z,8.43
2017-08-02T18:54:49.843Z,12.40
2017-08-02T18:57:18.332Z,9.00
2017-08-02T18:59:46.765Z,10.43
2017-08-02T19:02:15.262Z,9.67
2017-08-02T19:04:44.198Z,10.80
2017-08-02T19:07:13.019Z,10.63
2017-08-02T19:09:41.473Z,10.83
2017-08-02T19:12:10.361Z,9.00
2017-08-02T19:14:38.878Z,11.07
2017-08-02T19:17:07.831Z,10.87
2017-08-02T19:19:37.326Z,10.37
2017-08-02T19:22:06.242Z,11.87
2017-08-02T19:24:35.109Z,11.20
2017-08-02T19:27:04.013Z,12.90
2017-08-02T19:29:32.449Z,11.93
2017-08-02T19:32:01.409Z,13.17
2017-08-02T19:34:30.452Z,10.20
2017-08-02T19:36:58.946Z,13.93
2017-08-02T19:39:27.494Z,11.77
2017-08-02T19:41:57.023Z,13.23
2017-08-02T19:44:26.468Z,12.77
2017-08-02T19:46:55.986Z,13.20
2017-08-02T19:49:25.106Z,12.03
2017-08-02T19:51:54.112Z,11.43
2017-08-02T19:54:22.704Z,11.30
2017-08-02T19:56:51.375Z,13.10
2017-08-02T19:59:20.327Z,12.00
2017-08-02T20:01:49.196Z,14.60
2017-08-02T20:04:18.467Z,10.83
2017-08-02T20:06:48.487Z,11.63
2017-08-02T20:09:17.378Z,12.90
2017-08-02T20:11:46.014Z,14.00
2017-08-02T20:14:15.352Z,15.70
2017-08-02T20:16:44.591Z,14.77
2017-08-02T20:19:13.520Z,12.80
2017-08-02T20:21:42.358Z,19.27
2017-08-02T20:24:11.325Z,17.07
2017-08-02T20:26:39.868Z,18.50
2017-08-02T20:29:08.712Z,21.30
2017-08-02T20:31:37.199Z,15.50
2017-08-02T20:34:06.059Z,15.30
2017-08-02T20:36:34.942Z,13.73
2017-08-02T20:39:03.826Z,16.27
2017-08-02T20:41:32.340Z,15.33
2017-08-02T20:44:01.548Z,16.80
2017-08-02T20:46:30.505Z,16.03
2017-08-02T20:48:58.970Z,13.83
2017-08-02T20:51:27.404Z,13.73
2017-08-02T20:53:55.877Z,13.47
2017-08-02T20:56:25.101Z,15.70
2017-08-02T20:58:55.369Z,15.30
2017-08-02T21:01:23.839Z,15.00
2017-08-02T21:03:52.935Z,14.80
2017-08-02T21:06:21.454Z,14.37
2017-08-02T21:08:49.931Z,14.20
2017-08-02T21:11:20.039Z,13.00
2017-08-02T21:13:48.876Z,13.20
2017-08-02T21:16:17.705Z,14.60
2017-08-02T21:18:46.231Z,13.20
2017-08-02T21:21:14.685Z,13.50
2017-08-02T21:23:43.129Z,14.40
2017-08-02T21:26:11.609Z,15.20
2017-08-02T21:28:40.087Z,13.63
2017-08-02T21:31:09.129Z,14.10
2017-08-02T21:33:37.580Z,15.23
2017-08-02T21:36:07.318Z,16.67
2017-08-02T21:38:36.146Z,16.80
2017-08-02T21:41:05.716Z,14.53
2017-08-02T21:43:34.028Z,13.77
2017-08-02T21:46:02.901Z,16.13
2017-08-02T21:48:31.732Z,18.23
2017-08-02T21:51:00.300Z,17.40
2017-08-02T21:53:29.512Z,18.00
2017-08-02T21:55:57.990Z,17.63
2017-08-02T21:58:27.263Z,17.40
2017-08-02T22:00:55.719Z,15.70
2017-08-02T22:03:25.310Z,15.20
2017-08-02T22:05:53.807Z,13.30
2017-08-02T22:08:23.042Z,13.67
2017-08-02T22:10:51.539Z,14.43
2017-08-02T22:13:20.407Z,14.67
2017-08-02T22:15:49.266Z,16.87
2017-08-02T22:18:17.697Z,15.90
2017-08-02T22:20:46.186Z,15.30
2017-08-02T22:23:15.407Z,14.53
2017-08-02T22:25:43.828Z,13.90
2017-08-02T22:28:13.061Z,14.30
2017-08-02T22:30:41.508Z,14.53
2017-08-02T22:33:10.414Z,15.07
2017-08-02T22:35:39.613Z,14.20
2017-08-02T22:38:08.052Z,13.43
2017-08-02T22:40:36.629Z,13.97
2017-08-02T22:43:05.069Z,12.80
2017-08-02T22:45:33.564Z,13.37
2017-08-02T22:48:02.811Z,13.50
2017-08-02T22:50:31.277Z,14.60
2017-08-02T22:53:00.106Z,16.23
2017-08-02T22:55:28.585Z,13.47
2017-08-02T22:57:57.020Z,13.73
2017-08-02T23:00:25.505Z,13.87
2017-08-02T23:02:54.761Z,14.77
2017-08-02T23:05:23.206Z,14.07
2017-08-02T23:07:51.671Z,12.87
2017-08-02T23:10:20.173Z,13.10
2017-08-02T23:12:48.637Z,14.33
2017-08-02T23:15:17.482Z,13.53
2017-08-02T23:17:46.741Z,14.47
2017-08-02T23:20:15.185Z,12.17
2017-08-02T23:22:44.013Z,13.47
2017-08-02T23:25:12.501Z,17.33
2017-08-02T23:27:40.940Z,13.57
2017-08-02T23:30:09.509Z,16.63
2017-08-02T23:32:37.994Z,14.40
2017-08-02T23:35:06.424Z,12.53
2017-08-02T23:37:34.906Z,16.87
2017-08-02T23:40:03.387Z,15.83
2017-08-02T23:42:32.223Z,12.77
2017-08-02T23:45:00.697Z,15.60
2017-08-02T23:47:30.310Z,14.07
2017-08-02T23:49:58.744Z,14.63
2017-08-02T23:52:27.215Z,14.63
2017-08-02T23:54:56.420Z,16.40
2017-08-02T23:57:25.288Z,12.47
2017-08-02T23:59:53.778Z,13.47
